Time;durP1;ratioP1;P1;durP2;ratioP2;P2;SDS_P1;SDS_P2;PMS_P1;PMS_P2;Temp;Humidity;BMP_temperature;BMP_pressure;BME280_temperature;BME280_humidity;BME280_pressure;Samples;Min_cycle;Max_cycle;Signal;HPM_P1;HPM_P2
2022/03/31 00:00:12;;;;;;;1.80;1.57;;;;;;;11.50;61.98;91460.25;4996963;28;20667;-81
2022/03/31 00:03:00;;;;;;;2.20;1.60;;;;;;;11.21;61.58;91401.44;4996865;28;20606;-88
2022/03/31 00:05:28;;;;;;;6.50;2.07;;;;;;;11.39;61.92;91432.31;4996602;28;20548;-82
2022/03/31 00:08:10;;;;;;;2.83;1.60;;;;;;;11.35;61.51;91424.13;4997758;28;20634;-83
2022/03/31 00:10:43;;;;;;;1.00;1.00;;;;;;;11.39;61.40;91425.53;4996935;28;20498;-84
2022/03/31 00:13:18;;;;;;;4.87;1.33;;;;;;;11.48;61.06;91419.09;4992656;28;20335;-82
2022/03/31 00:15:49;;;;;;;3.17;2.13;;;;;;;11.54;60.90;91414.44;4998334;28;20198;-84
2022/03/31 00:18:18;;;;;;;3.93;1.97;;;;;;;11.87;61.13;91461.22;4995966;28;20547;-83
2022/03/31 00:34:19;;;;;;;2.07;1.93;;;;;;;11.65;61.75;91476.97;4995883;28;20589;-84
2022/03/31 00:36:52;;;;;;;2.23;1.80;;;;;;;11.35;61.58;91434.25;4995930;28;20594;-83
2022/03/31 00:39:33;;;;;;;2.00;1.90;;;;;;;11.68;62.01;91479.28;4997113;28;20555;-84
2022/03/31 00:42:12;;;;;;;5.47;1.63;;;;;;;11.63;62.05;91481.31;4996023;28;20585;-84
2022/03/31 00:44:39;;;;;;;2.27;2.07;;;;;;;11.23;62.13;91407.22;4995574;28;20571;-83
2022/03/31 00:47:11;;;;;;;2.13;1.83;;;;;;;11.76;62.22;91488.97;4997271;28;20579;-83
2022/03/31 00:49:40;;;;;;;2.47;1.70;;;;;;;11.62;62.28;91462.78;4995682;28;20539;-83
2022/03/31 00:52:09;;;;;;;4.50;2.10;;;;;;;11.48;62.34;91437.59;4994670;28;20587;-83
2022/03/31 00:54:37;;;;;;;5.73;3.13;;;;;;;11.62;62.60;91456.94;4996279;28;20580;-83
2022/03/31 00:57:07;;;;;;;4.33;2.30;;;;;;;11.66;63.01;91472.72;4995103;28;20209;-83
2022/03/31 00:59:34;;;;;;;1.80;1.70;;;;;;;11.81;62.59;91512.22;4994899;28;20565;-83
2022/03/31 01:02:08;;;;;;;4.20;2.13;;;;;;;11.73;63.12;91510.19;4996019;28;20602;-83
2022/03/31 01:04:36;;;;;;;2.17;2.07;;;;;;;11.23;63.23;91428.25;4995899;28;20543;-84
2022/03/31 01:07:08;;;;;;;2.60;2.03;;;;;;;11.66;62.86;91498.03;4976199;28;20605;-83
2022/03/31 01:09:36;;;;;;;2.57;2.10;;;;;;;11.26;63.10;91432.31;4977716;28;20562;-83
2022/03/31 01:12:05;;;;;;;6.13;3.70;;;;;;;11.71;62.97;91512.00;4976994;28;20544;-83
2022/03/31 01:14:36;;;;;;;5.47;3.20;;;;;;;11.25;63.57;91428.16;4976658;28;20558;-84
2022/03/31 01:17:05;;;;;;;5.10;3.03;;;;;;;11.06;63.65;91394.84;4975614;28;20545;-83
2022/03/31 01:19:34;;;;;;;3.80;3.13;;;;;;;11.21;65.24;91419.13;4976975;28;20526;-83
2022/03/31 01:22:02;;;;;;;4.10;3.27;;;;;;;11.48;64.69;91492.44;4977286;28;20538;-83
2022/03/31 01:24:32;;;;;;;13.97;5.67;;;;;;;10.94;64.55;91415.84;4987921;28;20588;-83
2022/03/31 01:27:07;;;;;;;8.27;4.10;;;;;;;11.32;65.21;91462.25;4995389;28;20567;-84
2022/03/31 01:29:34;;;;;;;11.27;4.10;;;;;;;10.73;65.65;91402.84;4995952;28;20639;-83
2022/03/31 01:32:02;;;;;;;8.87;4.40;;;;;;;10.66;65.75;91391.50;4995400;28;20591;-83
2022/03/31 01:34:30;;;;;;;11.90;4.43;;;;;;;10.86;66.78;91418.88;4995790;28;20230;-83
2022/03/31 01:37:00;;;;;;;10.93;5.37;;;;;;;10.82;66.47;91411.59;4977544;28;20588;-83
2022/03/31 01:39:28;;;;;;;3.50;3.30;;;;;;;10.55;66.99;91397.22;4976754;28;20552;-83
2022/03/31 01:41:58;;;;;;;5.63;3.80;;;;;;;10.38;67.25;91393.22;4976496;28;20690;-83
2022/03/31 01:44:28;;;;;;;5.77;3.80;;;;;;;10.72;68.03;91439.94;4979590;28;20559;-83
2022/03/31 01:46:56;;;;;;;13.50;3.50;;;;;;;10.38;67.74;91393.22;4979823;28;20532;-83
2022/03/31 01:49:24;;;;;;;10.57;4.80;;;;;;;10.13;68.89;91374.63;4980189;28;20234;-83
2022/03/31 01:51:52;;;;;;;26.43;8.23;;;;;;;10.01;69.26;91352.66;4982472;28;20528;-83
2022/03/31 01:54:20;;;;;;;8.73;4.47;;;;;;;10.32;69.99;91430.66;4980092;28;20614;-83
2022/03/31 01:56:48;;;;;;;2.97;2.83;;;;;;;9.68;71.37;91368.91;4978807;28;20668;-83
2022/03/31 01:59:18;;;;;;;8.67;2.80;;;;;;;9.66;71.17;91363.13;4979239;28;20219;-83
2022/03/31 02:01:48;;;;;;;3.17;2.40;;;;;;;9.61;71.87;91377.72;4979360;28;20635;-82
2022/03/31 02:04:16;;;;;;;9.80;2.23;;;;;;;9.81;72.90;91435.34;4979658;28;20546;-83
2022/03/31 02:06:44;;;;;;;2.53;2.30;;;;;;;9.71;72.61;91423.38;4979924;28;20578;-83
2022/03/31 02:09:12;;;;;;;12.60;4.10;;;;;;;9.39;73.52;91379.88;4979824;28;20195;-83
2022/03/31 02:11:40;;;;;;;90.60;34.73;;;;;;;9.32;73.41;91369.34;4980445;28;20483;-83
2022/03/31 02:14:13;;;;;;;8.73;4.53;;;;;;;9.38;73.66;91374.03;4979395;28;20500;-84
2022/03/31 02:16:45;;;;;;;2.27;2.00;;;;;;;9.58;74.24;91387.97;4979720;28;20526;-83
2022/03/31 02:19:22;;;;;;;16.27;5.13;;;;;;;9.40;73.42;91367.19;4979099;28;20294;-83
2022/03/31 02:21:51;;;;;;;13.77;3.43;;;;;;;9.57;73.68;91401.50;4979450;28;20599;-83
2022/03/31 02:24:19;;;;;;;19.90;4.77;;;;;;;9.25;74.53;91370.59;4980030;28;20539;-83
2022/03/31 02:26:48;;;;;;;3.10;2.63;;;;;;;9.22;74.58;91388.41;4979553;28;20227;-82
2022/03/31 02:29:15;;;;;;;4.73;3.40;;;;;;;9.29;74.74;91392.22;4981220;28;20557;-82
2022/03/31 02:31:46;;;;;;;4.23;3.90;;;;;;;9.56;74.49;91423.38;4978958;28;20502;-83
2022/03/31 02:34:19;;;;;;;5.67;2.40;;;;;;;9.25;74.76;91368.06;4978904;28;20568;-84
2022/03/31 02:36:47;;;;;;;2.70;2.60;;;;;;;9.82;74.15;91439.50;4979326;28;20445;-83
2022/03/31 02:39:22;;;;;;;3.37;3.10;;;;;;;9.30;74.56;91345.94;4979558;28;20576;-84
2022/03/31 02:41:49;;;;;;;4.10;3.03;;;;;;;9.31;74.42;91354.31;4979068;28;20595;-83
2022/03/31 02:44:17;;;;;;;3.53;3.27;;;;;;;9.57;74.88;91417.44;4979261;28;20576;-83
2022/03/31 02:46:47;;;;;;;6.83;3.40;;;;;;;9.13;74.93;91344.38;4978653;28;20583;-82
2022/03/31 02:49:14;;;;;;;11.60;5.93;;;;;;;9.22;75.14;91362.41;4979486;28;20607;-82
2022/03/31 02:51:42;;;;;;;6.37;5.00;;;;;;;9.68;74.99;91421.84;4979046;28;20480;-83
2022/03/31 02:56:55;;;;;;;12.90;7.83;;;;;;;9.27;74.37;91332.72;4980872;28;20556;-83
2022/03/31 02:59:22;;;;;;;8.93;7.77;;;;;;;9.51;75.07;91396.81;4979154;28;20556;-82
2022/03/31 03:01:51;;;;;;;11.17;8.63;;;;;;;9.31;75.01;91346.75;4997556;28;20607;-83
2022/03/31 03:04:19;;;;;;;17.57;8.30;;;;;;;9.18;75.21;91334.06;4998560;28;20595;-83
2022/03/31 03:06:49;;;;;;;20.67;10.03;;;;;;;9.23;75.59;91339.66;4997630;28;20466;-83
2022/03/31 03:09:17;;;;;;;19.40;8.53;;;;;;;8.97;76.02;91327.72;4997725;28;20473;-82
2022/03/31 03:11:44;;;;;;;11.37;6.50;;;;;;;8.94;76.72;91346.34;4997634;28;20534;-83
2022/03/31 03:14:13;;;;;;;27.10;5.40;;;;;;;9.01;77.04;91349.34;4994485;28;20562;-83
2022/03/31 03:16:42;;;;;;;11.03;6.40;;;;;;;9.01;76.87;91334.22;4997596;28;20619;-83
2022/03/31 03:19:11;;;;;;;11.10;6.50;;;;;;;8.88;77.68;91354.25;4997204;28;20460;-82
2022/03/31 03:21:38;;;;;;;9.70;6.53;;;;;;;8.73;78.72;91367.72;4997005;28;20221;-82
2022/03/31 03:24:06;;;;;;;11.00;8.73;;;;;;;8.31;79.69;91313.00;4997392;28;20202;-83
2022/03/31 03:26:34;;;;;;;12.73;7.80;;;;;;;9.01;79.45;91424.91;4998081;28;20237;-83
2022/03/31 03:29:01;;;;;;;6.70;5.10;;;;;;;8.55;79.37;91362.00;4977507;28;20203;-82
2022/03/31 03:31:29;;;;;;;14.23;6.27;;;;;;;8.67;79.82;91383.16;4978716;28;20199;-83
2022/03/31 03:33:57;;;;;;;11.13;4.80;;;;;;;8.69;79.75;91387.19;4978991;28;20588;-83
2022/03/31 03:36:27;;;;;;;5.23;4.00;;;;;;;8.92;80.56;91440.50;4977698;28;20533;-82
2022/03/31 03:38:56;;;;;;;10.87;6.40;;;;;;;8.50;80.36;91348.03;4978019;28;20582;-83
2022/03/31 03:41:24;;;;;;;12.43;5.23;;;;;;;8.87;80.35;91404.69;4978266;28;20560;-83
2022/03/31 03:43:51;;;;;;;9.40;6.20;;;;;;;8.48;80.46;91352.34;4978427;28;20559;-82
2022/03/31 03:46:19;;;;;;;7.23;4.93;;;;;;;8.56;79.98;91353.53;4978170;28;20660;-83
2022/03/31 03:48:46;;;;;;;7.33;6.23;;;;;;;9.17;79.49;91438.25;4977806;28;20514;-82
2022/03/31 03:51:14;;;;;;;16.23;8.70;;;;;;;8.63;79.56;91362.38;4977445;28;20230;-82
2022/03/31 03:53:44;;;;;;;16.27;7.17;;;;;;;8.74;79.53;91356.72;4977979;28;20632;-83
2022/03/31 03:56:12;;;;;;;11.20;7.17;;;;;;;8.82;79.55;91362.16;4979561;28;20632;-82
2022/03/31 03:58:39;;;;;;;9.90;6.83;;;;;;;8.84;80.19;91389.78;4976221;28;20669;-82
2022/03/31 04:01:09;;;;;;;17.20;9.33;;;;;;;8.36;80.79;91320.31;4976799;28;20631;-82
2022/03/31 04:03:37;;;;;;;29.77;14.97;;;;;;;8.30;81.53;91339.88;4978165;28;20604;-82
2022/03/31 04:06:04;;;;;;;18.77;9.93;;;;;;;8.54;82.18;91398.13;4977361;28;20545;-83
2022/03/31 04:08:32;;;;;;;7.30;6.23;;;;;;;8.26;82.78;91350.16;4977233;28;20588;-83
2022/03/31 04:11:05;;;;;;;21.17;7.33;;;;;;;8.63;83.41;91409.38;4976865;28;20547;-84
2022/03/31 04:13:33;;;;;;;7.00;6.30;;;;;;;8.25;83.85;91359.41;4976599;28;20552;-83
2022/03/31 04:16:00;;;;;;;8.97;5.23;;;;;;;8.28;83.46;91373.53;4978575;28;20581;-82
2022/03/31 04:18:28;;;;;;;7.90;5.50;;;;;;;8.27;84.54;91379.47;4977042;28;20218;-83
2022/03/31 04:20:55;;;;;;;4.30;4.00;;;;;;;8.31;84.91;91401.06;4977066;28;20637;-83
2022/03/31 04:23:23;;;;;;;9.20;4.67;;;;;;;8.21;85.57;91398.22;4976818;28;20578;-83
2022/03/31 04:25:50;;;;;;;13.07;5.87;;;;;;;8.45;85.77;91448.16;4984398;28;20488;-78
2022/03/31 04:28:19;;;;;;;14.53;4.73;;;;;;;8.15;85.42;91382.63;4993940;28;20285;-79
2022/03/31 04:30:46;;;;;;;4.20;3.90;;;;;;;7.96;85.92;91354.31;4988389;28;20525;-80
2022/03/31 04:33:14;;;;;;;8.03;4.10;;;;;;;8.11;85.79;91364.34;4993237;28;20647;-81
2022/03/31 04:35:41;;;;;;;4.87;4.43;;;;;;;8.34;85.89;91380.75;4994671;28;20668;-80
2022/03/31 04:38:10;;;;;;;6.20;4.33;;;;;;;8.23;85.75;91376.28;4988873;28;20599;-81
2022/03/31 04:40:42;;;;;;;5.60;5.10;;;;;;;8.34;85.49;91393.34;4987685;28;20195;-81
2022/03/31 04:43:20;;;;;;;19.33;7.47;;;;;;;9.00;85.66;91492.09;4994759;28;20480;-84
2022/03/31 04:45:50;;;;;;;14.10;6.60;;;;;;;8.55;85.84;91393.91;4987177;28;20606;-83
2022/03/31 04:51:04;;;;;;;12.73;8.10;;;;;;;8.78;85.94;91383.38;4995531;23;20492;-81
2022/03/31 04:53:32;;;;;;;10.03;7.10;;;;;;;9.42;86.33;91480.50;4933509;28;20209;-81
2022/03/31 04:55:59;;;;;;;10.83;6.70;;;;;;;9.08;87.40;91442.09;4934260;28;20573;-79
2022/03/31 04:58:28;;;;;;;17.70;8.20;;;;;;;9.05;88.91;91426.34;4925058;28;20275;-80
2022/03/31 05:00:56;;;;;;;22.57;11.00;;;;;;;8.88;89.93;91414.69;4926748;28;20529;-82
2022/03/31 05:03:24;;;;;;;22.13;12.77;;;;;;;8.68;91.33;91402.38;4937602;28;20517;-81
2022/03/31 05:05:51;;;;;;;9.50;8.43;;;;;;;8.71;90.99;91385.41;4935596;28;20227;-81
2022/03/31 05:08:19;;;;;;;23.27;9.70;;;;;;;8.78;91.97;91362.41;4937092;28;20659;-78
2022/03/31 05:10:46;;;;;;;6.43;5.93;;;;;;;9.28;90.69;91450.25;4933719;28;20473;-80
2022/03/31 05:13:14;;;;;;;11.43;6.47;;;;;;;9.08;90.67;91416.91;4932967;28;20565;-81
2022/03/31 05:15:43;;;;;;;10.93;6.70;;;;;;;8.85;90.61;91363.69;4930497;28;20232;-81
2022/03/31 05:18:10;;;;;;;40.40;16.77;;;;;;;9.44;92.35;91449.28;4935650;28;20216;-81
2022/03/31 05:20:37;;;;;;;222.37;79.50;;;;;;;9.09;92.71;91372.38;4930671;28;20208;-81
2022/03/31 05:23:05;;;;;;;35.73;18.13;;;;;;;9.56;92.54;91441.03;4935151;28;20196;-81
2022/03/31 05:25:33;;;;;;;24.70;15.00;;;;;;;9.25;92.47;91375.63;4937647;28;20217;-82
2022/03/31 05:28:00;;;;;;;43.53;17.93;;;;;;;9.66;92.74;91426.19;4940660;28;20555;-81
2022/03/31 05:30:27;;;;;;;43.37;17.23;;;;;;;9.58;92.26;91388.78;4935922;28;20632;-81
2022/03/31 05:32:56;;;;;;;40.20;19.50;;;;;;;9.93;92.07;91433.81;4936429;28;20227;-82
2022/03/31 05:35:24;;;;;;;55.47;25.07;;;;;;;9.98;91.69;91437.69;4938096;28;20652;-80
2022/03/31 05:37:56;;;;;;;61.43;27.20;;;;;;;9.98;92.18;91399.03;4939491;28;20582;-85
2022/03/31 05:40:24;;;;;;;57.03;26.00;;;;;;;10.05;91.83;91407.88;4935252;28;20479;-80
2022/03/31 05:42:52;;;;;;;66.47;31.77;;;;;;;9.89;91.81;91379.41;4939106;28;20197;-80
2022/03/31 05:45:20;;;;;;;61.53;26.90;;;;;;;10.01;91.07;91386.25;4937276;28;20557;-82
2022/03/31 05:47:47;;;;;;;63.23;24.83;;;;;;;10.56;90.09;91477.13;4936036;28;20219;-81
2022/03/31 05:50:16;;;;;;;71.83;24.30;;;;;;;10.51;89.29;91453.06;4937654;28;20523;-80
2022/03/31 05:52:44;;;;;;;48.70;23.80;;;;;;;10.71;89.33;91483.78;4937451;28;20308;-81
2022/03/31 05:55:13;;;;;;;39.97;19.37;;;;;;;10.75;89.68;91482.69;4935301;28;20501;-82
2022/03/31 05:57:41;;;;;;;52.80;21.83;;;;;;;10.26;88.71;91388.94;4936465;28;20583;-82
2022/03/31 06:00:11;;;;;;;46.50;19.67;;;;;;;10.63;88.83;91457.38;4938988;28;20475;-80
2022/03/31 06:02:38;;;;;;;27.47;15.23;;;;;;;10.77;89.97;91483.41;4937804;28;20299;-81
2022/03/31 06:05:07;;;;;;;26.80;13.70;;;;;;;10.88;90.09;91470.09;4938070;28;20542;-81
2022/03/31 06:07:36;;;;;;;32.00;17.10;;;;;;;10.80;90.81;91424.31;4938321;28;20597;-81
2022/03/31 06:10:04;;;;;;;35.77;17.60;;;;;;;10.68;91.71;91408.19;4936981;28;20228;-82
2022/03/31 06:12:32;;;;;;;34.10;14.13;;;;;;;10.68;91.52;91380.41;4935307;28;20486;-82
2022/03/31 06:15:00;;;;;;;18.70;9.77;;;;;;;11.06;90.69;91423.47;4938775;28;20482;-81
2022/03/31 06:17:27;;;;;;;38.27;18.50;;;;;;;10.61;91.15;91346.34;4936908;28;20251;-82
2022/03/31 06:19:54;;;;;;;24.00;9.00;;;;;;;10.87;90.62;91359.88;4935229;28;20521;-82
2022/03/31 06:22:22;;;;;;;18.23;11.13;;;;;;;10.79;90.79;91327.50;4935961;28;20209;-82
2022/03/31 06:24:51;;;;;;;41.93;17.53;;;;;;;10.98;90.43;91323.81;4937593;28;20287;-83
2022/03/31 06:27:19;;;;;;;8.23;7.50;;;;;;;11.47;91.12;91394.72;4936093;28;20569;-83
2022/03/31 06:29:47;;;;;;;6.03;5.40;;;;;;;11.15;87.74;91354.63;4934118;28;20474;-83
2022/03/31 06:32:17;;;;;;;25.23;11.20;;;;;;;11.26;87.08;91348.06;4934985;28;20488;-81
2022/03/31 06:34:45;;;;;;;18.17;8.60;;;;;;;11.62;87.94;91397.03;4938608;28;20644;-82
2022/03/31 06:37:20;;;;;;;23.43;12.03;;;;;;;11.89;87.65;91421.44;4937087;28;20621;-85
2022/03/31 06:39:48;;;;;;;8.50;7.70;;;;;;;11.85;86.73;91409.91;4938003;28;20204;-81
2022/03/31 06:42:17;;;;;;;22.57;10.87;;;;;;;12.03;85.66;91428.91;4934203;28;20304;-83
2022/03/31 06:44:44;;;;;;;25.90;13.77;;;;;;;11.82;86.16;91377.22;4936363;28;20474;-82
2022/03/31 06:47:12;;;;;;;15.97;11.23;;;;;;;11.91;85.98;91362.22;4936781;28;20472;-81
2022/03/31 06:49:39;;;;;;;23.33;12.13;;;;;;;12.20;86.63;91374.63;4937943;28;20590;-82
2022/03/31 06:52:07;;;;;;;22.60;11.30;;;;;;;12.05;84.18;91376.47;4935173;28;20311;-78
2022/03/31 06:54:34;;;;;;;22.33;10.10;;;;;;;12.34;82.92;91418.31;4933753;28;20641;-78
2022/03/31 06:57:04;;;;;;;13.07;8.97;;;;;;;12.04;81.79;91364.72;4933190;28;20640;-79
2022/03/31 06:59:33;;;;;;;22.73;10.73;;;;;;;12.59;82.72;91431.84;4932082;28;20510;-81
2022/03/31 07:02:01;;;;;;;26.87;10.30;;;;;;;11.96;83.59;91339.13;4935519;28;20208;-79
2022/03/31 07:04:29;;;;;;;22.10;8.63;;;;;;;12.23;83.39;91395.47;4915638;28;88251;-79
2022/03/31 07:06:57;;;;;;;11.80;7.63;;;;;;;11.98;83.97;91365.16;4873576;29;20243;-79
2022/03/31 07:09:25;;;;;;;21.20;11.40;;;;;;;11.82;84.84;91329.16;4872212;29;20565;-79
2022/03/31 07:11:53;;;;;;;17.57;11.37;;;;;;;12.24;85.75;91391.22;4873891;29;20639;-78
2022/03/31 07:14:20;;;;;;;20.80;11.00;;;;;;;12.44;85.86;91404.13;4872193;29;20529;-82
2022/03/31 07:16:49;;;;;;;19.60;8.13;;;;;;;12.46;84.51;91381.22;4872707;29;20465;-79
2022/03/31 07:19:16;;;;;;;33.27;14.37;;;;;;;12.42;84.44;91365.44;4876581;29;20570;-77
2022/03/31 07:21:43;;;;;;;7.17;5.00;;;;;;;12.64;84.73;91392.59;4871965;29;20580;-76
2022/03/31 07:24:11;;;;;;;9.77;7.10;;;;;;;12.77;85.16;91385.75;4872134;29;20627;-77
2022/03/31 07:26:39;;;;;;;8.00;4.90;;;;;;;12.43;84.49;91331.59;4875765;29;20631;-77
2022/03/31 07:29:08;;;;;;;3.87;3.67;;;;;;;13.03;84.01;91419.38;4875150;29;20607;-78
2022/03/31 07:31:35;;;;;;;7.40;2.53;;;;;;;12.85;82.56;91347.19;4872825;29;20498;-77
2022/03/31 07:34:04;;;;;;;10.03;3.47;;;;;;;13.40;81.51;91419.34;4876287;29;20568;-77
2022/03/31 07:36:31;;;;;;;17.57;3.97;;;;;;;13.35;79.82;91408.72;4872997;29;20643;-78
2022/03/31 07:38:59;;;;;;;11.25;3.45;;;;;;;13.57;78.02;91429.06;4875808;29;20626;-78
2022/03/31 07:41:26;;;;;;;10.65;3.92;;;;;;;13.66;79.29;91413.97;4873758;29;20583;-78
2022/03/31 07:43:54;;;;;;;9.73;3.00;;;;;;;13.86;77.43;91414.22;4871753;29;20655;-77
2022/03/31 07:46:22;;;;;;;5.43;3.92;;;;;;;13.81;77.36;91398.50;4873419;29;20580;-79
2022/03/31 07:48:49;;;;;;;16.40;5.70;;;;;;;13.57;77.19;91341.06;4873562;29;20199;-78
2022/03/31 07:51:18;;;;;;;15.80;3.63;;;;;;;14.19;75.79;91418.50;4875517;29;20611;-79
2022/03/31 07:53:46;;;;;;;8.10;3.38;;;;;;;14.09;75.13;91398.06;4870747;29;20206;-80
2022/03/31 07:56:13;;;;;;;7.53;3.00;;;;;;;14.20;74.65;91405.69;4871896;29;20647;-80
2022/03/31 07:58:40;;;;;;;6.80;3.28;;;;;;;14.32;73.38;91439.50;4873288;29;20321;-79
2022/03/31 08:01:08;;;;;;;15.17;3.73;;;;;;;14.29;72.78;91430.41;4874173;29;20486;-78
2022/03/31 08:03:44;;;;;;;8.82;3.67;;;;;;;14.11;72.86;91381.78;4873646;29;20553;-78
2022/03/31 08:06:12;;;;;;;17.33;3.67;;;;;;;14.50;73.29;91421.16;4874432;29;20556;-78
2022/03/31 08:08:41;;;;;;;8.52;4.10;;;;;;;14.55;72.71;91414.91;4873929;29;20618;-79
2022/03/31 08:11:08;;;;;;;11.20;2.97;;;;;;;14.65;71.15;91421.72;4871318;29;20480;-80
2022/03/31 08:13:36;;;;;;;5.63;2.90;;;;;;;14.62;71.01;91395.72;4869992;29;20218;-82
2022/03/31 08:16:05;;;;;;;5.60;3.05;;;;;;;15.09;68.50;91423.34;4868718;29;20493;-82
2022/03/31 08:18:34;;;;;;;6.13;4.55;;;;;;;14.76;68.67;91359.88;4877838;29;20603;-79
2022/03/31 08:21:02;;;;;;;10.50;4.68;;;;;;;14.98;67.38;91369.97;4871676;29;20491;-80
2022/03/31 08:23:30;;;;;;;16.60;3.65;;;;;;;15.26;66.79;91389.75;4873901;29;20238;-76
2022/03/31 08:26:01;;;;;;;10.95;3.55;;;;;;;15.04;67.47;91346.56;4869274;29;20519;-82
2022/03/31 08:28:31;;;;;;;15.73;3.75;;;;;;;15.43;66.56;91383.31;4871880;29;20613;-82
2022/03/31 08:31:09;;;;;;;6.00;2.90;;;;;;;15.75;64.56;91408.72;4869605;29;20591;-82
2022/03/31 08:33:50;;;;;;;4.38;2.65;;;;;;;15.51;64.71;91367.41;4870893;29;20670;-85
2022/03/31 08:36:41;;;;;;;10.18;3.80;;;;;;;15.77;64.55;91379.63;4872863;29;20254;-85
2022/03/31 08:39:09;;;;;;;5.30;3.42;;;;;;;15.86;65.58;91359.44;4877414;29;20479;-81
2022/03/31 08:41:38;;;;;;;7.50;5.18;;;;;;;15.91;66.92;91393.78;4873697;29;20203;-84
2022/03/31 08:44:06;;;;;;;10.05;3.05;;;;;;;15.58;64.52;91354.09;4872413;29;20369;-82
2022/03/31 08:46:47;;;;;;;5.30;3.67;;;;;;;16.00;65.12;91390.47;4872354;29;20574;-84
2022/03/31 08:49:24;;;;;;;2.95;2.20;;;;;;;15.75;62.98;91325.50;4876199;29;20662;-85
2022/03/31 08:52:12;;;;;;;4.03;2.15;;;;;;;16.12;60.79;91361.44;4878579;29;20590;-87
2022/03/31 08:54:39;;;;;;;17.30;3.92;;;;;;;16.57;60.73;91404.38;4880067;29;20496;-83
2022/03/31 08:57:38;;;;;;;3.72;3.15;;;;;;;16.69;59.61;91389.81;4880063;29;20587;-86
2022/03/31 09:00:11;;;;;;;5.30;3.78;;;;;;;16.86;59.27;91412.94;4879027;29;20625;-87
2022/03/31 09:02:52;;;;;;;15.00;5.70;;;;;;;16.99;59.03;91392.28;4879663;29;20590;-83
2022/03/31 09:05:20;;;;;;;11.35;3.35;;;;;;;16.62;58.29;91340.28;4879557;29;20660;-82
2022/03/31 09:07:59;;;;;;;6.30;1.92;;;;;;;16.48;56.15;91346.53;4879035;29;20527;-83
2022/03/31 09:10:42;;;;;;;9.88;2.47;;;;;;;16.47;55.79;91353.38;4879723;29;20548;-85
2022/03/31 09:13:40;;;;;;;7.57;1.92;;;;;;;16.43;56.00;91325.72;4861279;29;20481;-85
2022/03/31 09:22:17;;;;;;;6.40;1.90;;;;;;;17.55;54.95;91368.63;4858217;29;20230;-82
2022/03/31 09:25:16;;;;;;;;;;;;;;;;;;;;;
2022/03/31 09:31:14;;;;;;;2.38;2.17;;;;;;;17.57;53.75;91349.69;4798654;29;20491;-84
2022/03/31 09:33:58;;;;;;;6.80;2.40;;;;;;;17.69;54.78;91320.50;4876823;29;20571;-84
2022/03/31 09:36:27;;;;;;;5.43;2.33;;;;;;;17.91;54.77;91337.25;4879788;29;20616;-84
2022/03/31 09:38:58;;;;;;;5.63;2.30;;;;;;;18.08;53.69;91331.38;4879077;29;20524;-80
2022/03/31 09:41:27;;;;;;;9.73;2.75;;;;;;;18.18;53.29;91324.50;4879805;29;20567;-84
2022/03/31 09:50:09;;;;;;;4.78;2.13;;;;;;;18.75;50.13;91378.09;4864808;29;20671;-81
2022/03/31 09:52:47;;;;;;;7.72;1.85;;;;;;;18.46;50.13;91314.28;4879915;29;20195;-87
2022/03/31 09:55:18;;;;;;;5.45;2.00;;;;;;;18.47;50.71;91295.44;4879557;29;20574;-84
2022/03/31 09:57:59;;;;;;;4.68;2.60;;;;;;;18.88;50.37;91370.84;4879414;29;20223;-82
2022/03/31 10:00:26;;;;;;;3.53;2.33;;;;;;;18.71;50.42;91379.31;4879301;29;20229;-81
2022/03/31 10:03:21;;;;;;;5.60;2.45;;;;;;;18.86;50.41;91360.78;4879643;29;20230;-84
2022/03/31 10:05:52;;;;;;;10.43;3.00;;;;;;;18.50;49.93;91302.78;4883656;29;20534;-85
2022/03/31 10:08:47;;;;;;;5.55;2.78;;;;;;;19.10;50.26;91332.03;4883359;29;20587;-82
2022/03/31 10:11:16;;;;;;;4.15;1.38;;;;;;;19.12;49.81;91319.09;4882649;29;20549;-84
2022/03/31 10:13:50;;;;;;;20.00;3.28;;;;;;;18.91;50.17;91284.38;4882708;29;21181;-82
2022/03/31 10:16:26;;;;;;;7.00;2.92;;;;;;;19.08;50.08;91331.41;4881419;29;20611;-81
2022/03/31 10:18:55;;;;;;;5.53;1.63;;;;;;;18.80;49.11;91291.47;4881166;29;20203;-81
2022/03/31 10:21:43;;;;;;;;;;;;;;;;;;;;;
2022/03/31 10:24:44;;;;;;;15.20;4.95;;;;;;;18.80;49.83;91291.47;4876126;29;20477;-80
2022/03/31 10:27:25;;;;;;;2.75;2.55;;;;;;;19.10;50.19;91292.84;4879531;29;20583;-82
2022/03/31 10:29:52;;;;;;;26.55;3.35;;;;;;;19.08;49.84;91320.34;4874351;29;20318;-80
2022/03/31 10:35:27;;;;;;;7.90;2.10;;;;;;;19.37;49.29;91337.09;4815058;29;20671;-85
2022/03/31 10:37:59;;;;;;;8.85;2.28;;;;;;;19.30;49.47;91274.59;4877039;29;20525;-82
2022/03/31 10:40:49;;;;;;;2.88;1.88;;;;;;;19.65;47.98;91360.88;4873687;29;20581;-82
2022/03/31 10:43:30;;;;;;;6.25;1.70;;;;;;;19.57;47.61;91312.13;4881857;29;20662;-81
2022/03/31 10:46:04;;;;;;;24.05;1.95;;;;;;;19.60;47.24;91331.53;4880724;29;20539;-80
2022/03/31 10:48:49;;;;;;;14.55;1.80;;;;;;;19.22;47.32;91286.53;4881433;29;20503;-79
2022/03/31 10:51:18;;;;;;;8.82;2.10;;;;;;;18.87;48.05;91303.50;4881342;29;20492;-80
2022/03/31 10:53:50;;;;;;;3.53;2.30;;;;;;;18.67;48.86;91271.34;4881514;29;20206;-82
2022/03/31 10:56:20;;;;;;;8.13;1.60;;;;;;;18.43;49.87;91260.84;4881887;29;20740;-78
2022/03/31 10:58:49;;;;;;;1.77;1.55;;;;;;;18.42;51.75;91323.97;4881841;29;20644;-80
2022/03/31 11:01:18;;;;;;;1.50;1.40;;;;;;;18.04;52.63;91285.81;4881353;29;20472;-78
2022/03/31 11:04:03;;;;;;;3.50;0.82;;;;;;;17.50;52.76;91250.78;4881379;29;20619;-86
2022/03/31 11:06:33;;;;;;;3.42;2.70;;;;;;;17.96;53.62;91322.31;4874249;29;20558;-83
2022/03/31 11:09:02;;;;;;;3.22;1.75;;;;;;;17.79;54.19;91259.97;4870152;29;20508;-81
2022/03/31 11:11:32;;;;;;;5.82;1.45;;;;;;;17.86;55.63;91297.75;4868799;29;20207;-81
2022/03/31 11:14:00;;;;;;;3.03;1.52;;;;;;;17.76;55.04;91295.19;4869559;29;20669;-77
2022/03/31 11:16:37;;;;;;;2.40;1.33;;;;;;;17.32;53.33;91264.25;4867359;29;20607;-82
2022/03/31 11:19:19;;;;;;;;;;;;;;;;;;;;;
2022/03/31 11:21:49;;;;;;;11.27;1.52;;;;;;;17.28;54.35;91224.63;4863298;29;20556;-82
2022/03/31 11:24:25;;;;;;;9.38;1.30;;;;;;;17.30;54.11;91232.13;4869080;29;20217;-84
2022/03/31 11:26:54;;;;;;;1.75;0.82;;;;;;;17.56;53.88;91242.56;4879641;29;20207;-76
2022/03/31 11:29:26;;;;;;;0.82;0.82;;;;;;;18.07;53.73;91288.91;4873363;29;20652;-77
2022/03/31 11:31:59;;;;;;;0.63;0.63;;;;;;;17.44;54.69;91205.38;4875662;29;20496;-78
2022/03/31 11:34:38;;;;;;;0.82;0.80;;;;;;;17.51;56.52;91245.53;4875828;29;20606;-81
2022/03/31 11:37:17;;;;;;;1.73;1.23;;;;;;;17.04;56.08;91170.69;4871752;29;20485;-82
2022/03/31 11:39:49;;;;;;;6.35;1.50;;;;;;;17.46;55.23;91211.97;4872959;29;20588;-81
2022/03/31 11:42:17;;;;;;;1.63;1.20;;;;;;;17.41;55.02;91221.75;4878761;29;20202;-80
2022/03/31 11:44:45;;;;;;;15.00;2.35;;;;;;;16.95;55.66;91169.78;4880205;29;20674;-81
2022/03/31 11:47:17;;;;;;;8.27;1.70;;;;;;;17.33;56.12;91270.16;4879287;29;20591;-80
2022/03/31 11:49:45;;;;;;;2.40;1.25;;;;;;;17.22;56.89;91219.28;4879828;29;20649;-76
2022/03/31 11:52:22;;;;;;;1.10;1.00;;;;;;;16.84;57.26;91230.38;4880704;29;20238;-86
2022/03/31 11:54:49;;;;;;;5.05;1.88;;;;;;;16.72;61.57;91148.09;4879887;29;20558;-78
2022/03/31 11:57:18;;;;;;;1.77;1.17;;;;;;;16.79;64.83;91163.63;4880154;29;20752;-76
2022/03/31 11:59:45;;;;;;;1.08;1.00;;;;;;;16.22;67.29;91127.06;4880488;29;20556;-78
2022/03/31 12:02:16;;;;;;;2.42;1.02;;;;;;;16.60;67.93;91186.63;4880878;29;20595;-76
2022/03/31 12:04:47;;;;;;;12.95;2.00;;;;;;;16.13;64.08;91135.50;4880751;29;20595;-79
2022/03/31 12:07:16;;;;;;;5.28;1.00;;;;;;;16.27;62.58;91129.19;4880149;29;20477;-81
2022/03/31 12:09:45;;;;;;;9.68;1.35;;;;;;;16.87;61.51;91184.97;4879989;29;20203;-76
2022/03/31 12:12:14;;;;;;;3.75;1.33;;;;;;;16.87;60.36;91139.06;4879843;29;20644;-77
2022/03/31 12:14:52;;;;;;;2.20;1.88;;;;;;;16.88;60.11;91116.91;4880342;29;20599;-76
2022/03/31 12:17:20;;;;;;;11.82;1.85;;;;;;;17.07;59.67;91090.53;4879440;29;20638;-77
2022/03/31 12:19:47;;;;;;;2.50;1.30;;;;;;;17.35;58.22;91149.09;4878667;29;20246;-76
2022/03/31 12:22:16;;;;;;;5.18;0.90;;;;;;;17.74;58.06;91159.97;4877798;29;20499;-76
2022/03/31 12:24:51;;;;;;;15.00;2.03;;;;;;;18.04;55.99;91181.84;4878309;29;20229;-79
2022/03/31 12:27:24;;;;;;;8.18;1.45;;;;;;;17.85;53.94;91119.84;4872743;29;20693;-76